Time;durP1;ratioP1;P1;durP2;ratioP2;P2;SDS_P1;SDS_P2;PMS_P1;PMS_P2;Temp;Humidity;BMP_temperature;BMP_pressure;BME280_temperature;BME280_humidity;BME280_pressure;Samples;Min_cycle;Max_cycle;Signal;HPM_P1;HPM_P2
2022/02/18 00:01:08;;;;;;;;;;;;;;;11.16;54.29;98846.98;117353;1185;23445;-57
2022/02/18 00:03:37;;;;;;;;;;;;;;;11.16;54.36;98852.06;117395;1185;21845;-55
2022/02/18 00:06:06;;;;;;;;;;;;;;;11.18;54.34;98847.28;117393;1184;22784;-57
2022/02/18 00:08:35;;;;;;;;;;;;;;;11.17;54.25;98837.45;117386;1185;22908;-57
2022/02/18 00:11:04;;;;;;;;;;;;;;;11.17;54.12;98835.73;117371;1185;21838;-57
2022/02/18 00:13:33;;;;;;;;;;;;;;;11.15;54.18;98834.05;117374;1184;24127;-58
2022/02/18 00:16:01;;;;;;;;;;;;;;;11.12;54.15;98824.86;117436;1185;22465;-58
2022/02/18 00:18:30;;;;;;;;;;;;;;;11.08;54.25;98825.16;117437;1186;24138;-56
2022/02/18 00:20:59;;;;;;;;;;;;;;;11.05;54.12;98821.44;117398;1186;21838;-56
2022/02/18 00:23:27;;;;;;;;;;;;;;;11.02;54.11;98812.80;117423;1185;21854;-56
2022/02/18 00:25:55;;;;;;;;;;;;;;;11.00;54.00;98802.86;117408;1186;21829;-56
2022/02/18 00:28:23;;;;;;;;;;;;;;;10.99;53.87;98798.66;117372;1185;22963;-56
2022/02/18 00:30:51;;;;;;;;;;;;;;;10.95;54.00;98798.13;117354;1186;21839;-59
2022/02/18 00:33:19;;;;;;;;;;;;;;;10.96;53.90;98799.15;117321;1182;23439;-56
2022/02/18 00:35:47;;;;;;;;;;;;;;;10.88;54.05;98799.63;117389;1185;24168;-59
2022/02/18 00:38:15;;;;;;;;;;;;;;;10.85;54.04;98797.47;117340;1183;22954;-58
2022/02/18 00:40:45;;;;;;;;;;;;;;;10.81;53.98;98800.40;117338;1185;21829;-56
2022/02/18 00:43:13;;;;;;;;;;;;;;;10.79;54.14;98809.11;117508;1185;23703;-58
2022/02/18 00:45:42;;;;;;;;;;;;;;;10.77;53.94;98808.30;117316;1185;22939;-59
2022/02/18 00:48:11;;;;;;;;;;;;;;;10.75;53.96;98809.77;117324;1185;21839;-56
2022/02/18 00:50:41;;;;;;;;;;;;;;;10.75;53.98;98810.48;117383;1183;23527;-55
2022/02/18 00:53:09;;;;;;;;;;;;;;;10.74;54.10;98815.41;117380;1185;21839;-55
2022/02/18 00:55:36;;;;;;;;;;;;;;;10.74;53.96;98812.29;117384;1181;21841;-58
2022/02/18 00:58:05;;;;;;;;;;;;;;;10.73;53.95;98818.98;117313;1185;21838;-55
2022/02/18 01:00:33;;;;;;;;;;;;;;;10.71;53.87;98813.95;117385;1182;24120;-58
2022/02/18 01:03:01;;;;;;;;;;;;;;;10.74;53.90;98810.89;117410;1185;23445;-56
2022/02/18 01:05:29;;;;;;;;;;;;;;;10.74;53.93;98805.96;117338;1185;21835;-56
2022/02/18 01:07:57;;;;;;;;;;;;;;;10.72;53.73;98802.52;117401;1183;23018;-56
2022/02/18 01:10:25;;;;;;;;;;;;;;;10.70;53.94;98808.04;117301;1185;21839;-59
2022/02/18 01:12:54;;;;;;;;;;;;;;;10.66;53.85;98817.45;117392;1182;24112;-59
2022/02/18 01:15:22;;;;;;;;;;;;;;;10.63;53.93;98819.35;117352;1189;21829;-58
2022/02/18 01:17:51;;;;;;;;;;;;;;;10.59;53.80;98825.81;117392;1185;23603;-59
2022/02/18 01:20:20;;;;;;;;;;;;;;;10.54;53.83;98828.25;117342;1185;21828;-58
2022/02/18 01:22:48;;;;;;;;;;;;;;;10.51;53.77;98829.09;117372;1185;23342;-58
2022/02/18 01:25:16;;;;;;;;;;;;;;;10.48;53.72;98826.75;117372;1182;21839;-60
2022/02/18 01:27:44;;;;;;;;;;;;;;;10.43;53.73;98833.59;117357;1185;21838;-59
2022/02/18 01:30:12;;;;;;;;;;;;;;;10.37;53.92;98834.45;117307;1185;23403;-54
2022/02/18 01:32:40;;;;;;;;;;;;;;;10.35;53.78;98837.86;117406;1185;24113;-58
2022/02/18 01:35:09;;;;;;;;;;;;;;;10.34;53.79;98844.23;117378;1185;21837;-57
2022/02/18 01:37:38;;;;;;;;;;;;;;;10.30;53.83;98835.26;117350;1183;23640;-57
2022/02/18 01:40:07;;;;;;;;;;;;;;;10.28;53.85;98834.10;117366;1185;21839;-56
2022/02/18 01:42:35;;;;;;;;;;;;;;;10.25;53.84;98841.00;117449;1185;22908;-58
2022/02/18 01:45:04;;;;;;;;;;;;;;;10.23;53.94;98835.83;117380;1185;21847;-56
2022/02/18 01:47:34;;;;;;;;;;;;;;;10.21;53.95;98830.13;117343;1185;21847;-55
2022/02/18 01:50:02;;;;;;;;;;;;;;;10.20;53.91;98829.28;117403;1183;21836;-55
2022/02/18 01:52:31;;;;;;;;;;;;;;;10.20;53.94;98832.61;117351;1185;22975;-56
2022/02/18 01:54:59;;;;;;;;;;;;;;;10.19;53.85;98834.92;117369;1185;21839;-57
2022/02/18 01:57:28;;;;;;;;;;;;;;;10.18;53.93;98833.75;117371;1185;21847;-57
2022/02/18 01:59:56;;;;;;;;;;;;;;;10.14;53.87;98828.10;117378;1185;23429;-57
2022/02/18 02:02:23;;;;;;;;;;;;;;;10.12;53.81;98828.86;117356;1183;21836;-57
2022/02/18 02:04:51;;;;;;;;;;;;;;;10.10;53.79;98833.14;117417;1186;23411;-56
2022/02/18 02:07:22;;;;;;;;;;;;;;;10.10;53.92;98842.62;117431;1182;21876;-58
2022/02/18 02:09:51;;;;;;;;;;;;;;;10.10;53.82;98856.64;117323;1185;21848;-56
2022/02/18 02:12:19;;;;;;;;;;;;;;;10.04;53.84;98874.87;117395;1185;21839;-56
2022/02/18 02:14:48;;;;;;;;;;;;;;;10.00;53.62;98884.46;117376;1182;21834;-57
2022/02/18 02:17:16;;;;;;;;;;;;;;;10.01;53.64;98890.07;117367;1185;23705;-56
2022/02/18 02:19:45;;;;;;;;;;;;;;;9.99;53.55;98901.69;117402;1185;21985;-56
2022/02/18 02:22:14;;;;;;;;;;;;;;;9.97;53.53;98912.80;117330;1184;23550;-58
2022/02/18 02:24:42;;;;;;;;;;;;;;;9.93;53.66;98927.27;117377;1185;21838;-59
2022/02/18 02:27:10;;;;;;;;;;;;;;;9.81;53.66;98940.45;117542;1183;21845;-58
2022/02/18 02:29:38;;;;;;;;;;;;;;;9.76;53.82;98953.59;117352;1185;23557;-57
2022/02/18 02:32:07;;;;;;;;;;;;;;;9.78;54.02;98953.70;117486;1185;21842;-56
2022/02/18 02:34:36;;;;;;;;;;;;;;;9.83;53.92;98961.94;117396;1185;21889;-59
2022/02/18 02:37:04;;;;;;;;;;;;;;;9.89;54.00;98962.83;117354;1185;23509;-57
2022/02/18 02:39:33;;;;;;;;;;;;;;;9.94;53.92;98970.02;117374;1185;21839;-56
2022/02/18 02:42:01;;;;;;;;;;;;;;;9.97;53.87;98974.48;117337;1185;21838;-56
2022/02/18 02:44:29;;;;;;;;;;;;;;;9.99;54.10;98982.44;117441;1186;21886;-55
2022/02/18 02:46:57;;;;;;;;;;;;;;;10.01;53.94;98987.46;117391;1185;23443;-55
2022/02/18 02:49:25;;;;;;;;;;;;;;;10.01;53.88;98991.33;117344;1184;21845;-55
2022/02/18 02:51:53;;;;;;;;;;;;;;;10.01;53.86;98991.88;117450;1185;21842;-54
2022/02/18 02:54:21;;;;;;;;;;;;;;;10.00;54.00;98995.95;117415;1186;21832;-55
2022/02/18 02:56:56;;;;;;;;;;;;;;;9.97;53.89;99002.66;117255;1184;21828;-56
2022/02/18 02:59:24;;;;;;;;;;;;;;;9.94;53.89;99004.52;117153;1186;22308;-59
2022/02/18 03:01:54;;;;;;;;;;;;;;;9.90;53.92;99010.10;117310;1185;21844;-56
2022/02/18 03:04:22;;;;;;;;;;;;;;;9.81;53.75;99018.23;117373;1184;23631;-59
2022/02/18 03:06:50;;;;;;;;;;;;;;;9.74;53.82;99021.09;117341;1185;21835;-55
2022/02/18 03:09:39;;;;;;;;;;;;;;;9.66;53.84;99030.79;117317;1184;21836;-59
2022/02/18 03:12:07;;;;;;;;;;;;;;;9.60;53.97;99036.05;117406;1185;21845;-59
2022/02/18 03:14:35;;;;;;;;;;;;;;;9.56;53.84;99038.60;117376;1185;21962;-55
2022/02/18 03:17:04;;;;;;;;;;;;;;;9.53;53.77;99032.58;117387;1183;21963;-59
2022/02/18 03:19:33;;;;;;;;;;;;;;;9.49;53.84;99035.31;117183;1186;22889;-60
2022/02/18 03:22:01;;;;;;;;;;;;;;;9.45;53.78;99041.73;117416;1185;21838;-59
2022/02/18 03:24:30;;;;;;;;;;;;;;;9.41;53.81;99053.41;117402;1186;21839;-55
2022/02/18 03:26:58;;;;;;;;;;;;;;;9.35;53.80;99055.84;117377;1185;21839;-60
2022/02/18 03:29:27;;;;;;;;;;;;;;;9.31;53.88;99055.95;117421;1183;21846;-55
2022/02/18 03:31:55;;;;;;;;;;;;;;;9.28;54.03;99059.38;117406;1185;23518;-55
2022/02/18 03:34:23;;;;;;;;;;;;;;;9.25;54.01;99067.68;117326;1183;23433;-56
2022/02/18 03:36:51;;;;;;;;;;;;;;;9.24;54.05;99071.55;117324;1182;21842;-60
2022/02/18 03:39:21;;;;;;;;;;;;;;;9.21;54.00;99067.77;117399;1186;21896;-56
2022/02/18 03:41:49;;;;;;;;;;;;;;;9.19;54.04;99072.75;117382;1185;21845;-60
2022/02/18 03:44:17;;;;;;;;;;;;;;;9.15;54.06;99077.73;117384;1185;21847;-56
2022/02/18 03:46:45;;;;;;;;;;;;;;;9.12;54.12;99073.79;117395;1185;21989;-55
2022/02/18 03:49:13;;;;;;;;;;;;;;;9.09;54.18;99080.01;117218;1185;21845;-59
2022/02/18 03:51:41;;;;;;;;;;;;;;;9.06;54.16;99074.14;117375;1185;21846;-56
2022/02/18 03:54:10;;;;;;;;;;;;;;;9.04;54.12;99073.66;117416;1183;21825;-55
2022/02/18 03:56:38;;;;;;;;;;;;;;;9.03;54.34;99075.80;117403;1185;24246;-60
2022/02/18 03:59:06;;;;;;;;;;;;;;;9.02;54.17;99080.03;117364;1185;22068;-59
2022/02/18 04:01:34;;;;;;;;;;;;;;;9.00;54.22;99084.99;117335;1185;21839;-56
2022/02/18 04:04:02;;;;;;;;;;;;;;;8.98;54.30;99086.26;117398;1185;23426;-55
2022/02/18 04:06:30;;;;;;;;;;;;;;;8.97;54.31;99088.39;117450;1184;22948;-55
2022/02/18 04:08:59;;;;;;;;;;;;;;;8.96;54.34;99085.61;117386;1182;23414;-60
2022/02/18 04:11:27;;;;;;;;;;;;;;;8.97;54.31;99085.25;117352;1186;21964;-56
2022/02/18 04:13:55;;;;;;;;;;;;;;;8.95;54.34;99086.67;117363;1185;23520;-59
2022/02/18 04:16:24;;;;;;;;;;;;;;;8.95;54.31;99087.38;117375;1185;21842;-60
2022/02/18 04:18:56;;;;;;;;;;;;;;;8.94;54.46;99088.98;117329;1186;21842;-59
2022/02/18 04:21:24;;;;;;;;;;;;;;;8.93;54.50;99094.96;117472;1185;21839;-59
2022/02/18 04:23:52;;;;;;;;;;;;;;;8.92;54.39;99097.41;117387;1185;21838;-60
2022/02/18 04:26:20;;;;;;;;;;;;;;;8.92;54.44;99109.85;117411;1185;21828;-59
2022/02/18 04:28:49;;;;;;;;;;;;;;;8.90;54.40;99105.88;117362;1185;21867;-60
2022/02/18 04:31:17;;;;;;;;;;;;;;;8.90;54.56;99109.89;117393;1185;21838;-56
2022/02/18 04:33:45;;;;;;;;;;;;;;;8.91;54.47;99115.29;117380;1185;23438;-59
2022/02/18 04:36:13;;;;;;;;;;;;;;;8.92;54.42;99112.30;117414;1183;23600;-56
2022/02/18 04:38:42;;;;;;;;;;;;;;;8.93;54.33;99116.81;117367;1185;21839;-56
2022/02/18 04:41:10;;;;;;;;;;;;;;;8.91;54.47;99123.34;117400;1185;21838;-57
2022/02/18 04:43:38;;;;;;;;;;;;;;;8.89;54.48;99125.50;117346;1182;21839;-60
2022/02/18 04:46:06;;;;;;;;;;;;;;;8.87;54.37;99126.77;117392;1185;22554;-56
2022/02/18 04:48:35;;;;;;;;;;;;;;;8.84;54.45;99129.46;117358;1185;21829;-56
2022/02/18 04:51:03;;;;;;;;;;;;;;;8.84;54.46;99133.33;117361;1185;22982;-59
2022/02/18 04:53:36;;;;;;;;;;;;;;;8.84;54.48;99142.23;117390;1185;22718;-59
2022/02/18 04:56:07;;;;;;;;;;;;;;;8.84;54.50;99145.04;117388;1185;21839;-57
2022/02/18 04:58:36;;;;;;;;;;;;;;;8.85;54.56;99150.27;117370;1185;23522;-56
2022/02/18 05:01:04;;;;;;;;;;;;;;;8.84;54.59;99153.60;117343;1185;22783;-56
2022/02/18 05:03:33;;;;;;;;;;;;;;;8.85;54.59;99160.41;117351;1185;21845;-59
2022/02/18 05:06:04;;;;;;;;;;;;;;;8.85;54.59;99170.90;117380;1185;21963;-55
2022/02/18 05:08:32;;;;;;;;;;;;;;;8.84;54.60;99180.55;117399;1182;21836;-55
2022/02/18 05:10:59;;;;;;;;;;;;;;;8.83;54.58;99184.62;117382;1185;22787;-59
2022/02/18 05:13:31;;;;;;;;;;;;;;;8.82;54.56;99194.08;117337;1182;23541;-58
2022/02/18 05:16:01;;;;;;;;;;;;;;;8.82;54.63;99196.72;117299;1185;21838;-59
2022/02/18 05:18:29;;;;;;;;;;;;;;;8.82;54.67;99202.66;117355;1185;22602;-56
2022/02/18 05:20:57;;;;;;;;;;;;;;;8.80;54.48;99200.42;117358;1185;23416;-57
2022/02/18 05:23:25;;;;;;;;;;;;;;;8.78;54.44;99204.64;117345;1185;23419;-56
2022/02/18 05:25:53;;;;;;;;;;;;;;;8.75;54.61;99210.33;117429;1185;21848;-56
2022/02/18 05:28:21;;;;;;;;;;;;;;;8.73;54.67;99213.35;117360;1185;22301;-60
2022/02/18 05:30:49;;;;;;;;;;;;;;;8.70;54.57;99215.16;117357;1183;23426;-60
2022/02/18 05:33:17;;;;;;;;;;;;;;;8.67;54.61;99219.59;117344;1185;23497;-57
2022/02/18 05:35:45;;;;;;;;;;;;;;;8.65;54.66;99225.58;117372;1185;23443;-60
2022/02/18 05:38:13;;;;;;;;;;;;;;;8.64;54.74;99229.47;117495;1182;23690;-60
2022/02/18 05:40:42;;;;;;;;;;;;;;;8.59;54.67;99237.80;117391;1185;23423;-60
2022/02/18 05:43:10;;;;;;;;;;;;;;;8.55;54.69;99243.66;117413;1185;22909;-57
2022/02/18 05:45:38;;;;;;;;;;;;;;;8.56;54.70;99249.75;117464;1182;21847;-60
2022/02/18 05:48:06;;;;;;;;;;;;;;;8.56;54.58;99255.19;117349;1185;21829;-57
2022/02/18 05:50:35;;;;;;;;;;;;;;;8.55;54.68;99260.80;117319;1182;22624;-60
2022/02/18 05:53:04;;;;;;;;;;;;;;;8.55;54.65;99264.30;117371;1186;23515;-59
2022/02/18 05:55:32;;;;;;;;;;;;;;;8.55;54.71;99268.32;117323;1185;22929;-56
2022/02/18 05:58:01;;;;;;;;;;;;;;;8.54;54.73;99274.98;117343;1185;24157;-59
2022/02/18 06:00:29;;;;;;;;;;;;;;;8.55;54.59;99280.55;117330;1185;21836;-58
2022/02/18 06:03:00;;;;;;;;;;;;;;;8.55;54.82;99283.88;117280;1182;23512;-58
2022/02/18 06:05:28;;;;;;;;;;;;;;;8.55;54.71;99288.41;117454;1186;21843;-58
2022/02/18 06:07:59;;;;;;;;;;;;;;;8.55;54.69;99289.98;117247;1185;23516;-58
2022/02/18 06:10:28;;;;;;;;;;;;;;;8.54;54.78;99295.61;117368;1185;23416;-56
2022/02/18 06:12:56;;;;;;;;;;;;;;;8.53;54.75;99303.67;117375;1185;23598;-58
2022/02/18 06:15:26;;;;;;;;;;;;;;;8.52;54.62;99308.23;117405;1185;22782;-59
2022/02/18 06:17:56;;;;;;;;;;;;;;;8.50;54.67;99311.25;117329;1182;22789;-58
2022/02/18 06:20:24;;;;;;;;;;;;;;;8.50;54.80;99320.17;117768;1185;22600;-55
2022/02/18 06:22:52;;;;;;;;;;;;;;;8.47;54.75;99328.41;117379;1185;23199;-59
2022/02/18 06:25:20;;;;;;;;;;;;;;;8.47;54.76;99333.66;117358;1185;21960;-56
2022/02/18 06:27:48;;;;;;;;;;;;;;;8.50;54.77;99335.90;117431;1185;21829;-56
2022/02/18 06:30:17;;;;;;;;;;;;;;;8.52;54.83;99340.06;117423;1186;21972;-57
2022/02/18 06:32:46;;;;;;;;;;;;;;;8.54;54.92;99341.75;117521;1185;21891;-58
2022/02/18 06:35:14;;;;;;;;;;;;;;;8.57;54.90;99349.23;117387;1185;22928;-58
2022/02/18 06:37:43;;;;;;;;;;;;;;;8.59;54.70;99353.57;117369;1185;23443;-60
2022/02/18 06:40:12;;;;;;;;;;;;;;;8.60;54.97;99356.15;117390;1185;23440;-56
2022/02/18 06:42:41;;;;;;;;;;;;;;;8.61;54.79;99361.38;117351;1185;22603;-59
2022/02/18 06:45:09;;;;;;;;;;;;;;;8.62;54.83;99363.63;117319;1185;21838;-57
2022/02/18 06:47:38;;;;;;;;;;;;;;;8.61;54.92;99367.51;117393;1185;22172;-57
2022/02/18 06:50:06;;;;;;;;;;;;;;;8.61;54.83;99368.20;117417;1184;21986;-58
2022/02/18 06:52:34;;;;;;;;;;;;;;;8.60;54.94;99372.44;117436;1185;22902;-55
2022/02/18 06:55:02;;;;;;;;;;;;;;;8.59;54.93;99369.46;117317;1185;21869;-58
2022/02/18 06:57:31;;;;;;;;;;;;;;;8.67;55.08;99377.69;117404;1185;22898;-55
2022/02/18 06:59:59;;;;;;;;;;;;;;;8.80;55.27;99383.05;117337;1185;22179;-58
2022/02/18 07:02:27;;;;;;;;;;;;;;;8.95;55.14;99382.35;117314;1185;23413;-57
2022/02/18 07:04:55;;;;;;;;;;;;;;;9.08;55.17;99382.08;117421;1185;21841;-56
2022/02/18 07:07:23;;;;;;;;;;;;;;;9.20;55.26;99378.84;117461;1185;23440;-58
2022/02/18 07:09:51;;;;;;;;;;;;;;;9.32;55.26;99380.68;117333;1185;21884;-56
2022/02/18 07:12:24;;;;;;;;;;;;;;;9.43;55.35;99385.32;117384;1185;23519;-56
2022/02/18 07:14:54;;;;;;;;;;;;;;;9.50;55.18;99392.48;117344;1186;21862;-57
2022/02/18 07:17:22;;;;;;;;;;;;;;;9.56;55.23;99395.53;117410;1186;21836;-56
2022/02/18 07:19:51;;;;;;;;;;;;;;;9.63;55.09;99399.05;117382;1185;24117;-57
2022/02/18 07:22:19;;;;;;;;;;;;;;;9.72;55.33;99401.44;117379;1186;21839;-57
2022/02/18 07:24:48;;;;;;;;;;;;;;;9.81;55.35;99409.10;117466;1185;21858;-59
2022/02/18 07:27:16;;;;;;;;;;;;;;;9.90;55.37;99408.54;117357;1185;23443;-58
2022/02/18 07:29:44;;;;;;;;;;;;;;;10.01;55.35;99407.38;117423;1185;22630;-59
2022/02/18 07:32:13;;;;;;;;;;;;;;;10.13;55.25;99413.23;117377;1185;21917;-56
2022/02/18 07:34:41;;;;;;;;;;;;;;;10.19;55.19;99416.03;117433;1186;23442;-56
2022/02/18 07:37:10;;;;;;;;;;;;;;;10.27;55.17;99416.17;117426;1186;22599;-57
2022/02/18 07:39:39;;;;;;;;;;;;;;;10.33;55.05;99419.02;117362;1185;21892;-57
2022/02/18 07:42:07;;;;;;;;;;;;;;;10.38;54.90;99412.75;117371;1185;21882;-57
2022/02/18 07:44:36;;;;;;;;;;;;;;;10.44;54.80;99415.58;117383;1185;22979;-56
2022/02/18 07:47:04;;;;;;;;;;;;;;;10.51;54.85;99416.80;117368;1185;22952;-58
2022/02/18 07:49:48;;;;;;;;;;;;;;;10.60;54.76;99417.09;117412;1188;22932;-57
2022/02/18 07:52:16;;;;;;;;;;;;;;;10.76;55.07;99416.65;117414;1186;22599;-58
2022/02/18 07:54:44;;;;;;;;;;;;;;;10.96;54.88;99423.80;117368;1185;23443;-58
2022/02/18 07:57:12;;;;;;;;;;;;;;;11.11;54.72;99426.33;117393;1185;24160;-57
2022/02/18 07:59:40;;;;;;;;;;;;;;;11.27;55.11;99432.17;117314;1185;23223;-59
2022/02/18 08:02:09;;;;;;;;;;;;;;;11.45;54.95;99433.77;117432;1185;21835;-57
2022/02/18 08:04:37;;;;;;;;;;;;;;;11.53;54.71;99438.42;117331;1185;23211;-57
2022/02/18 08:07:10;;;;;;;;;;;;;;;11.58;54.48;99435.80;117345;1185;21842;-56
2022/02/18 08:09:39;;;;;;;;;;;;;;;11.65;54.30;99441.38;117344;1185;23416;-56
2022/02/18 08:12:07;;;;;;;;;;;;;;;11.73;54.33;99446.73;117382;1185;21876;-58
2022/02/18 08:14:35;;;;;;;;;;;;;;;11.81;54.16;99449.14;117320;1185;21844;-59
2022/02/18 08:17:03;;;;;;;;;;;;;;;11.85;53.93;99452.87;117372;1185;21837;-60
2022/02/18 08:19:31;;;;;;;;;;;;;;;11.84;53.80;99461.51;117371;1183;24116;-56
2022/02/18 08:22:03;;;;;;;;;;;;;;;11.87;53.46;99470.21;117386;1185;21836;-57
2022/02/18 08:24:36;;;;;;;;;;;;;;;11.91;53.45;99475.02;117365;1182;21838;-58
2022/02/18 08:27:06;;;;;;;;;;;;;;;11.87;53.39;99478.66;117349;1185;22814;-58
2022/02/18 08:29:35;;;;;;;;;;;;;;;11.97;53.73;99482.19;117431;1185;22309;-57
2022/02/18 08:32:03;;;;;;;;;;;;;;;12.09;53.66;99491.33;117368;1185;21878;-57
2022/02/18 08:34:31;;;;;;;;;;;;;;;12.12;53.26;99495.30;117464;1185;23507;-59
2022/02/18 08:37:01;;;;;;;;;;;;;;;12.12;53.10;99494.60;117293;1185;21834;-59
2022/02/18 08:39:31;;;;;;;;;;;;;;;12.02;52.74;99495.60;117359;1176;21844;-57
2022/02/18 08:41:59;;;;;;;;;;;;;;;11.96;52.94;99492.42;117368;1185;23521;-58
2022/02/18 08:44:27;;;;;;;;;;;;;;;12.02;53.09;99494.71;117371;1186;24113;-58
2022/02/18 08:46:55;;;;;;;;;;;;;;;12.12;53.05;99496.14;117184;1186;22900;-56
2022/02/18 08:49:23;;;;;;;;;;;;;;;12.20;52.49;99499.94;117360;1185;21841;-58
2022/02/18 08:51:51;;;;;;;;;;;;;;;12.29;52.85;99504.04;117329;1185;23417;-58
2022/02/18 08:54:19;;;;;;;;;;;;;;;12.46;53.15;99502.07;117389;1185;21845;-56
2022/02/18 08:56:49;;;;;;;;;;;;;;;12.58;52.57;99500.27;117337;1189;22980;-56
2022/02/18 08:59:17;;;;;;;;;;;;;;;12.63;52.37;99500.27;117412;1182;21843;-56
2022/02/18 09:01:45;;;;;;;;;;;;;;;12.67;52.60;99500.13;117360;1185;21831;-57
2022/02/18 09:04:14;;;;;;;;;;;;;;;12.76;52.85;99498.94;117325;1185;23538;-58
2022/02/18 09:06:42;;;;;;;;;;;;;;;12.89;53.07;99494.27;117384;1182;23417;-57
2022/02/18 09:09:10;;;;;;;;;;;;;;;13.09;53.08;99492.82;117341;1185;21835;-56
2022/02/18 09:11:40;;;;;;;;;;;;;;;13.27;52.68;99499.02;117307;1185;23063;-57
2022/02/18 09:14:10;;;;;;;;;;;;;;;13.29;52.70;99501.41;117321;1182;22869;-56
2022/02/18 09:16:38;;;;;;;;;;;;;;;13.27;52.68;99501.49;117374;1186;22714;-57
2022/02/18 09:19:06;;;;;;;;;;;;;;;13.29;52.18;99502.65;117443;1182;23416;-58
2022/02/18 09:21:34;;;;;;;;;;;;;;;13.18;51.80;99507.65;117348;1185;24139;-57
2022/02/18 09:24:02;;;;;;;;;;;;;;;13.12;52.19;99501.69;117305;1185;22601;-59
2022/02/18 09:26:31;;;;;;;;;;;;;;;13.13;52.07;99507.48;117300;1185;24227;-59
2022/02/18 09:28:59;;;;;;;;;;;;;;;13.07;51.83;99506.80;117345;1182;22911;-58
2022/02/18 09:31:30;;;;;;;;;;;;;;;12.94;51.56;99504.46;117351;1176;21838;-58
2022/02/18 09:33:58;;;;;;;;;;;;;;;12.71;50.54;99510.37;117346;1185;22833;-58
2022/02/18 09:36:27;;;;;;;;;;;;;;;12.61;51.04;99513.70;117259;1185;21839;-58
2022/02/18 09:38:55;;;;;;;;;;;;;;;12.74;51.70;99510.98;117414;1185;21829;-56
2022/02/18 09:41:24;;;;;;;;;;;;;;;12.99;51.47;99517.47;117327;1185;21849;-58
2022/02/18 09:43:52;;;;;;;;;;;;;;;13.25;51.09;99516.19;117379;1185;22892;-58
2022/02/18 09:46:21;;;;;;;;;;;;;;;13.36;50.82;99512.79;117313;1185;23623;-58
2022/02/18 09:48:49;;;;;;;;;;;;;;;13.48;50.62;99516.06;117497;1185;21839;-57
2022/02/18 09:51:18;;;;;;;;;;;;;;;13.65;50.45;99507.67;117355;1185;21851;-58
2022/02/18 09:53:47;;;;;;;;;;;;;;;13.77;50.08;99512.67;117321;1182;23410;-57
2022/02/18 09:56:17;;;;;;;;;;;;;;;13.88;50.76;99506.59;117369;1185;21838;-57
2022/02/18 09:58:45;;;;;;;;;;;;;;;14.02;50.48;99507.80;117345;1185;24148;-57
2022/02/18 10:01:13;;;;;;;;;;;;;;;14.09;50.15;99506.99;117380;1185;21898;-57
2022/02/18 10:03:41;;;;;;;;;;;;;;;14.10;49.26;99514.55;117294;1185;22911;-56
2022/02/18 10:06:09;;;;;;;;;;;;;;;14.09;48.99;99511.23;117292;1186;21839;-58
2022/02/18 10:08:47;;;;;;;;;;;;;;;14.17;49.33;99516.73;117349;1185;23535;-58
2022/02/18 10:11:15;;;;;;;;;;;;;;;14.23;49.03;99523.16;117332;1186;22716;-58
2022/02/18 10:13:45;;;;;;;;;;;;;;;14.29;49.43;99514.98;117228;1185;21842;-56
2022/02/18 10:16:17;;;;;;;;;;;;;;;14.42;49.49;99523.45;117300;1185;23712;-56
2022/02/18 10:18:56;;;;;;;;;;;;;;;14.50;48.88;99526.13;117356;1185;21848;-59
2022/02/18 10:21:27;;;;;;;;;;;;;;;14.63;49.79;99525.25;117245;1188;21843;-61
2022/02/18 10:24:08;;;;;;;;;;;;;;;14.79;49.35;99527.58;117357;1185;23535;-59
2022/02/18 10:26:40;;;;;;;;;;;;;;;14.82;49.16;99530.98;117329;1176;21832;-57
2022/02/18 10:29:08;;;;;;;;;;;;;;;14.86;48.97;99533.98;117275;1185;23429;-59
2022/02/18 10:31:36;;;;;;;;;;;;;;;14.92;48.75;99537.10;117328;1182;22660;-56
2022/02/18 10:34:08;;;;;;;;;;;;;;;14.93;47.66;99550.31;117325;1186;21840;-57
2022/02/18 10:36:36;;;;;;;;;;;;;;;14.85;48.05;99544.80;117380;1185;21854;-57
2022/02/18 10:39:43;;;;;;;;;;;;;;;14.88;48.32;99544.31;117340;1183;23488;-57
2022/02/18 10:42:14;;;;;;;;;;;;;;;14.86;48.09;99551.12;116835;1189;21866;-57
2022/02/18 10:44:45;;;;;;;;;;;;;;;14.86;48.60;99561.90;116970;1188;21832;-58
2022/02/18 10:47:21;;;;;;;;;;;;;;;14.75;48.22;99560.23;116913;1191;22918;-59
2022/02/18 10:49:49;;;;;;;;;;;;;;;14.60;47.87;99566.14;116956;1188;21887;-59
2022/02/18 10:52:18;;;;;;;;;;;;;;;14.59;48.18;99566.70;116835;1188;23451;-58
2022/02/18 10:54:46;;;;;;;;;;;;;;;14.52;48.29;99570.70;116818;1191;23612;-60
2022/02/18 10:57:20;;;;;;;;;;;;;;;14.49;48.63;99573.48;116935;1189;23050;-58
2022/02/18 10:59:48;;;;;;;;;;;;;;;14.52;48.67;99573.16;116796;1190;22981;-58
2022/02/18 11:02:35;;;;;;;;;;;;;;;14.41;47.86;99581.72;116885;1189;21845;-60
2022/02/18 11:05:21;;;;;;;;;;;;;;;14.22;47.03;99587.63;116850;1188;21843;-58
2022/02/18 11:07:56;;;;;;;;;;;;;;;14.05;47.49;99588.83;116873;1189;23506;-58
2022/02/18 11:10:46;;;;;;;;;;;;;;;13.95;47.73;99587.42;116901;1186;21874;-60
2022/02/18 11:13:14;;;;;;;;;;;;;;;13.98;47.82;99589.80;116879;1186;22610;-59
2022/02/18 11:15:42;;;;;;;;;;;;;;;14.06;48.32;99593.55;116756;1190;23552;-58
2022/02/18 11:18:11;;;;;;;;;;;;;;;14.04;48.38;99596.80;117069;1188;21847;-60
2022/02/18 11:20:39;;;;;;;;;;;;;;;13.92;48.26;99600.77;117284;1185;22610;-58
2022/02/18 11:23:07;;;;;;;;;;;;;;;13.92;48.04;99598.49;117213;1186;21815;-58
2022/02/18 11:25:35;;;;;;;;;;;;;;;14.03;48.39;99601.26;117218;1185;21885;-60
2022/02/18 11:28:05;;;;;;;;;;;;;;;14.20;48.50;99606.92;117241;1185;23445;-58
2022/02/18 11:30:35;;;;;;;;;;;;;;;14.44;47.65;99615.67;117179;1185;22974;-58
2022/02/18 11:33:22;;;;;;;;;;;;;;;14.58;48.02;99611.27;117198;1188;22989;-58
2022/02/18 11:36:02;;;;;;;;;;;;;;;14.74;48.53;99614.68;117175;1186;23459;-61
2022/02/18 11:38:37;;;;;;;;;;;;;;;14.72;48.74;99621.13;117259;1185;21842;-60
2022/02/18 11:41:08;;;;;;;;;;;;;;;14.66;48.60;99618.18;117226;1186;21842;-60
2022/02/18 11:43:43;;;;;;;;;;;;;;;14.61;47.75;99627.52;117232;1185;23466;-58
2022/02/18 11:46:20;;;;;;;;;;;;;;;14.41;46.17;99630.46;117286;1189;22929;-57
2022/02/18 11:48:49;;;;;;;;;;;;;;;14.05;46.33;99635.56;117264;1185;21848;-56
2022/02/18 11:51:22;;;;;;;;;;;;;;;13.81;46.76;99642.27;117356;1185;23159;-58
2022/02/18 11:53:52;;;;;;;;;;;;;;;13.54;46.07;99655.45;117342;1182;21837;-60
2022/02/18 11:56:35;;;;;;;;;;;;;;;13.24;45.60;99659.45;117488;1185;23459;-59
2022/02/18 11:59:04;;;;;;;;;;;;;;;12.95;45.77;99663.96;117371;1184;23348;-59
2022/02/18 12:01:48;;;;;;;;;;;;;;;12.72;46.20;99667.68;117314;1183;21838;-58
2022/02/18 12:04:19;;;;;;;;;;;;;;;12.55;46.55;99671.77;117347;1185;21845;-59
2022/02/18 12:07:06;;;;;;;;;;;;;;;12.45;47.10;99676.46;117443;1186;23644;-57
2022/02/18 12:09:50;;;;;;;;;;;;;;;12.41;47.70;99683.44;117396;1188;23442;-58
2022/02/18 12:12:22;;;;;;;;;;;;;;;12.41;47.83;99684.15;117369;1188;23443;-57
2022/02/18 12:14:50;;;;;;;;;;;;;;;12.46;48.16;99679.27;117329;1185;22948;-57
2022/02/18 12:17:19;;;;;;;;;;;;;;;12.50;48.07;99685.83;117369;1186;21879;-57
2022/02/18 12:19:47;;;;;;;;;;;;;;;12.53;47.94;99690.85;117372;1182;22969;-57
2022/02/18 12:22:29;;;;;;;;;;;;;;;12.56;47.96;99695.16;117339;1186;21896;-58
2022/02/18 12:25:08;;;;;;;;;;;;;;;12.54;46.94;99695.38;117434;1185;21838;-58
2022/02/18 12:27:38;;;;;;;;;;;;;;;12.45;46.68;99708.15;117332;1185;24126;-59
2022/02/18 12:30:21;;;;;;;;;;;;;;;12.31;46.65;99715.41;117372;1185;22950;-56
2022/02/18 12:32:50;;;;;;;;;;;;;;;12.12;46.69;99715.61;117341;1185;22901;-58
2022/02/18 12:35:27;;;;;;;;;;;;;;;12.01;47.24;99724.39;117333;1183;23544;-56
2022/02/18 12:37:56;;;;;;;;;;;;;;;11.95;47.02;99728.90;117399;1185;22157;-58
2022/02/18 12:40:24;;;;;;;;;;;;;;;11.89;46.50;99731.37;117388;1185;21842;-57
2022/02/18 12:42:58;;;;;;;;;;;;;;;11.84;46.63;99735.92;117324;1185;21841;-60
2022/02/18 12:45:36;;;;;;;;;;;;;;;11.81;47.21;99740.04;117411;1185;23701;-58
2022/02/18 12:48:04;;;;;;;;;;;;;;;11.82;47.31;99739.99;117395;1186;21844;-59
2022/02/18 12:50:34;;;;;;;;;;;;;;;11.85;47.66;99743.08;117440;1185;21811;-57
2022/02/18 12:53:02;;;;;;;;;;;;;;;11.88;47.51;99739.13;117389;1186;21904;-57